Wetterdaten: Woche 24.03.03 - 30.03.03 (KW13)
Datum Zeit Temperatur Luftfeuchte Luftdruck Regenmenge Wind Richtung Taupunkt Windchill
24.03.2003 00:00 1.0 C 83 % 1030.8 hPa 0.0 l/m 1.7 km/h (1 Bft) O-SO -1.5 C 0.7 C
24.03.2003 01:00 0.2 C 86 % 1030.8 hPa 0.0 l/m 0.5 km/h (0 Bft) O-SO -1.8 C 0.2 C
24.03.2003 02:00 -0.6 C 92 % 1030.8 hPa 0.0 l/m 0.6 km/h (0 Bft) O-SO -1.8 C -0.7 C
24.03.2003 03:00 -1.6 C 96 % 1031.5 hPa 0.0 l/m 1.8 km/h (1 Bft) O-SO -2.1 C -2.1 C
24.03.2003 04:00 -2.2 C 98 % 1031.9 hPa 0.0 l/m 1.0 km/h (0 Bft) O-SO -2.5 C -2.5 C
24.03.2003 05:00 -2.5 C 99 % 1031.9 hPa 0.0 l/m 1.6 km/h (1 Bft) O-SO -2.6 C -3.1 C
24.03.2003 06:00 -2.7 C 100 % 1032.8 hPa 0.0 l/m 0.0 km/h (0 Bft) N -2.7 C -2.7 C
24.03.2003 07:00 -1.3 C 94 % 1032.9 hPa 0.0 l/m 0.0 km/h (0 Bft) N -2.3 C -1.3 C
24.03.2003 08:00 1.1 C 84 % 1032.9 hPa 0.0 l/m 0.1 km/h (0 Bft) N -1.4 C 1.1 C
24.03.2003 09:00 4.4 C 72 % 1032.9 hPa 0.0 l/m 0.3 km/h (0 Bft) O -0.2 C 4.4 C
24.03.2003 10:00 8.5 C 59 % 1032.2 hPa 0.0 l/m 1.7 km/h (1 Bft) O-SO 1.0 C 8.3 C
24.03.2003 11:00 12.2 C 47 % 1031.9 hPa 0.0 l/m 1.8 km/h (1 Bft) O-SO 1.3 C 12.2 C
24.03.2003 12:00 15.8 C 39 % 1030.9 hPa 0.0 l/m 6.1 km/h (2 Bft) SO 1.8 C 15.8 C
24.03.2003 13:00 17.9 C 34 % 1030.0 hPa 0.0 l/m 7.3 km/h (2 Bft) SO 1.9 C 17.9 C
24.03.2003 14:00 18.6 C 33 % 1029.4 hPa 0.0 l/m 5.9 km/h (2 Bft) W-NW 1.8 C 18.6 C
24.03.2003 15:00 18.9 C 28 % 1028.8 hPa 0.0 l/m 7.0 km/h (2 Bft) W-NW 0.2 C 18.9 C
24.03.2003 16:00 18.5 C 27 % 1028.5 hPa 0.0 l/m 12.5 km/h (3 Bft) W-NW -0.7 C 18.5 C
24.03.2003 17:00 17.1 C 32 % 1028.3 hPa 0.0 l/m 9.1 km/h (2 Bft) W-NW 0.2 C 17.1 C
24.03.2003 18:00 13.8 C 41 % 1028.8 hPa 0.0 l/m 3.2 km/h (1 Bft) O-SO 0.8 C 13.8 C
24.03.2003 19:00 10.7 C 51 % 1028.8 hPa 0.0 l/m 8.9 km/h (2 Bft) O-SO 0.9 C 10.5 C
24.03.2003 20:00 8.1 C 60 % 1028.8 hPa 0.0 l/m 3.6 km/h (1 Bft) O-SO 0.9 C 7.7 C
24.03.2003 21:00 6.0 C 69 % 1028.8 hPa 0.0 l/m 0.8 km/h (0 Bft) O-SO 0.8 C 6.0 C
24.03.2003 22:00 4.6 C 78 % 1029.4 hPa 0.0 l/m 0.3 km/h (0 Bft) O-SO 1.0 C 4.6 C
24.03.2003 23:00 3.8 C 80 % 1029.2 hPa 0.0 l/m 0.9 km/h (0 Bft) O-SO 0.6 C 3.7 C
25.03.2003 00:00 2.9 C 83 % 1028.8 hPa 0.0 l/m 0.1 km/h (0 Bft) O-SO 0.4 C 2.9 C
25.03.2003 01:00 1.8 C 89 % 1028.8 hPa 0.0 l/m 0.6 km/h (0 Bft) O-SO 0.1 C 1.7 C
25.03.2003 02:00 1.2 C 90 % 1028.8 hPa 0.0 l/m 0.6 km/h (0 Bft) O-SO -0.3 C 1.0 C
25.03.2003 03:00 0.5 C 91 % 1028.8 hPa 0.0 l/m 0.4 km/h (0 Bft) O-SO -0.7 C 0.5 C
25.03.2003 04:00 -0.3 C 95 % 1027.9 hPa 0.0 l/m 0.3 km/h (0 Bft) O-SO -1.0 C -0.3 C
25.03.2003 05:00 -0.9 C 99 % 1027.7 hPa 0.0 l/m 0.9 km/h (0 Bft) O-SO -1.0 C -0.9 C
25.03.2003 06:00 -1.3 C 99 % 1027.7 hPa 0.0 l/m 0.0 km/h (0 Bft) N -1.4 C -1.3 C
25.03.2003 07:00 -0.1 C 95 % 1028.3 hPa 0.0 l/m 0.0 km/h (0 Bft) N -0.8 C -0.1 C
25.03.2003 08:00 2.4 C 86 % 1027.8 hPa 0.0 l/m 0.0 km/h (0 Bft) N 0.2 C 2.4 C
25.03.2003 09:00 5.6 C 72 % 1027.7 hPa 0.0 l/m 0.1 km/h (0 Bft) N 0.9 C 5.6 C
25.03.2003 10:00 9.1 C 58 % 1027.0 hPa 0.0 l/m 2.5 km/h (1 Bft) W-NW 1.2 C 9.0 C
25.03.2003 11:00 12.9 C 45 % 1026.2 hPa 0.0 l/m 4.4 km/h (1 Bft) W-NW 1.0 C 12.9 C
25.03.2003 12:00 16.4 C 35 % 1025.3 hPa 0.0 l/m 6.2 km/h (2 Bft) NW 1.0 C 16.4 C
25.03.2003 13:00 18.5 C 28 % 1024.5 hPa 0.0 l/m 11.9 km/h (2 Bft) SO -0.3 C 18.5 C
25.03.2003 14:00 18.9 C 27 % 1023.5 hPa 0.0 l/m 13.1 km/h (3 Bft) SO -0.4 C 18.9 C
25.03.2003 15:00 18.7 C 27 % 1022.5 hPa 0.0 l/m 15.6 km/h (3 Bft) O-SO -0.6 C 18.7 C
25.03.2003 16:00 18.2 C 27 % 1022.5 hPa 0.0 l/m 18.6 km/h (3 Bft) SO -1.1 C 18.2 C
25.03.2003 17:00 17.0 C 27 % 1021.9 hPa 0.0 l/m 15.4 km/h (3 Bft) O-SO -2.1 C 17.0 C
25.03.2003 18:00 14.7 C 31 % 1021.8 hPa 0.0 l/m 3.0 km/h (1 Bft) O-SO -2.4 C 14.7 C
25.03.2003 19:00 10.7 C 44 % 1022.1 hPa 0.0 l/m 1.8 km/h (1 Bft) O-SO -1.1 C 10.6 C
25.03.2003 20:00 7.6 C 55 % 1022.5 hPa 0.0 l/m 2.0 km/h (1 Bft) O-SO -0.8 C 7.4 C
25.03.2003 21:00 5.9 C 62 % 1022.5 hPa 0.0 l/m 3.3 km/h (1 Bft) O-SO -0.7 C 5.4 C
25.03.2003 22:00 5.1 C 68 % 1022.5 hPa 0.0 l/m 2.5 km/h (1 Bft) O-SO -0.3 C 4.5 C
25.03.2003 23:00 4.3 C 71 % 1022.5 hPa 0.0 l/m 3.2 km/h (1 Bft) O-SO -0.6 C 3.8 C
26.03.2003 00:00 3.2 C 76 % 1021.6 hPa 0.0 l/m 3.0 km/h (1 Bft) O-SO -0.6 C 2.6 C
26.03.2003 01:00 2.4 C 82 % 1021.5 hPa 0.0 l/m 0.0 km/h (0 Bft) O-SO -0.4 C 2.4 C
26.03.2003 02:00 1.4 C 84 % 1021.5 hPa 0.0 l/m 1.3 km/h (1 Bft) O-SO -1.0 C 1.1 C
26.03.2003 03:00 0.7 C 88 % 1021.5 hPa 0.0 l/m 0.8 km/h (0 Bft) O-SO -1.0 C 0.6 C
26.03.2003 04:00 -0.0 C 93 % 1021.5 hPa 0.0 l/m 1.4 km/h (1 Bft) O-SO -1.0 C -0.5 C
26.03.2003 05:00 -0.7 C 96 % 1021.5 hPa 0.0 l/m 0.0 km/h (0 Bft) N -1.3 C -0.7 C
26.03.2003 06:00 -0.9 C 98 % 1022.5 hPa 0.0 l/m 0.3 km/h (0 Bft) O-SO -1.1 C -0.9 C
26.03.2003 07:00 0.6 C 92 % 1022.5 hPa 0.0 l/m 0.5 km/h (0 Bft) O-SO -0.6 C 0.5 C
26.03.2003 08:00 3.2 C 80 % 1022.5 hPa 0.0 l/m 0.0 km/h (0 Bft) N 0.1 C 3.2 C
26.03.2003 09:00 6.3 C 66 % 1022.5 hPa 0.0 l/m 0.4 km/h (0 Bft) O-SO 0.5 C 6.3 C
26.03.2003 10:00 10.3 C 53 % 1021.5 hPa 0.0 l/m 1.0 km/h (0 Bft) SO 1.2 C 10.3 C
26.03.2003 11:00 13.7 C 42 % 1021.5 hPa 0.0 l/m 5.4 km/h (1 Bft) NW 0.9 C 13.7 C
26.03.2003 12:00 16.1 C 35 % 1020.6 hPa 0.0 l/m 5.4 km/h (1 Bft) W-NW 0.6 C 16.1 C
26.03.2003 13:00 18.1 C 35 % 1019.6 hPa 0.0 l/m 11.6 km/h (2 Bft) SO 2.2 C 18.1 C
26.03.2003 14:00 18.7 C 31 % 1019.4 hPa 0.0 l/m 13.8 km/h (3 Bft) O-SO 1.1 C 18.7 C
26.03.2003 15:00 18.8 C 27 % 1019.0 hPa 0.0 l/m 6.5 km/h (2 Bft) O-SO -0.6 C 18.8 C
26.03.2003 16:00 18.4 C 27 % 1018.3 hPa 0.0 l/m 5.6 km/h (1 Bft) O-SO -0.9 C 18.4 C
26.03.2003 17:00 17.2 C 27 % 1018.3 hPa 0.0 l/m 8.1 km/h (2 Bft) O-SO -1.9 C 17.2 C
26.03.2003 18:00 14.9 C 32 % 1018.3 hPa 0.0 l/m 3.0 km/h (1 Bft) O-SO -1.9 C 14.9 C
26.03.2003 19:00 11.2 C 46 % 1018.8 hPa 0.0 l/m 8.0 km/h (2 Bft) O-SO -0.1 C 11.1 C
26.03.2003 20:00 8.2 C 59 % 1019.4 hPa 0.0 l/m 3.6 km/h (1 Bft) O-SO 0.6 C 7.7 C
26.03.2003 21:00 6.3 C 66 % 1019.4 hPa 0.0 l/m 1.3 km/h (1 Bft) O-SO 0.5 C 6.1 C
26.03.2003 22:00 5.5 C 68 % 1019.8 hPa 0.0 l/m 1.1 km/h (1 Bft) O-SO -0.0 C 5.4 C
26.03.2003 23:00 4.3 C 76 % 1020.4 hPa 0.0 l/m 0.0 km/h (0 Bft) N 0.4 C 4.3 C
27.03.2003 00:00 3.5 C 78 % 1020.4 hPa 0.0 l/m 1.1 km/h (1 Bft) O-SO -0.0 C 3.4 C
27.03.2003 01:00 2.9 C 82 % 1020.4 hPa 0.0 l/m 1.6 km/h (1 Bft) O-SO 0.0 C 2.6 C
27.03.2003 02:00 1.7 C 88 % 1020.4 hPa 0.0 l/m 0.0 km/h (0 Bft) N -0.1 C 1.7 C
27.03.2003 03:00 1.4 C 94 % 1020.4 hPa 0.0 l/m 0.0 km/h (0 Bft) N 0.4 C 1.4 C
27.03.2003 04:00 0.9 C 96 % 1020.4 hPa 0.0 l/m 0.0 km/h (0 Bft) N 0.3 C 0.9 C
27.03.2003 05:00 0.5 C 96 % 1021.0 hPa 0.0 l/m 0.6 km/h (0 Bft) O-SO 0.0 C 0.4 C
27.03.2003 06:00 0.5 C 98 % 1021.5 hPa 0.0 l/m 0.2 km/h (0 Bft) O-SO 0.2 C 0.5 C
27.03.2003 07:00 1.8 C 92 % 1021.5 hPa 0.0 l/m 0.0 km/h (0 Bft) N 0.7 C 1.8 C
27.03.2003 08:00 4.3 C 81 % 1021.5 hPa 0.0 l/m 0.0 km/h (0 Bft) N 1.3 C 4.3 C
27.03.2003 09:00 6.8 C 70 % 1021.8 hPa 0.0 l/m 0.2 km/h (0 Bft) O-SO 1.6 C 6.8 C
27.03.2003 10:00 10.7 C 58 % 1021.5 hPa 0.0 l/m 3.5 km/h (1 Bft) O-SO 2.7 C 10.7 C
27.03.2003 11:00 14.0 C 47 % 1020.9 hPa 0.0 l/m 3.6 km/h (1 Bft) SO 2.7 C 14.0 C
27.03.2003 12:00 16.3 C 39 % 1020.4 hPa 0.0 l/m 2.9 km/h (1 Bft) SO 2.4 C 16.3 C
27.03.2003 13:00 18.8 C 35 % 1019.4 hPa 0.0 l/m 3.4 km/h (1 Bft) O-SO 2.9 C 18.8 C
27.03.2003 14:00 20.1 C 34 % 1018.4 hPa 0.0 l/m 3.7 km/h (1 Bft) O-SO 3.7 C 20.1 C
27.03.2003 15:00 20.1 C 26 % 1018.3 hPa 0.0 l/m 3.6 km/h (1 Bft) O-SO 0.2 C 20.1 C
27.03.2003 16:00 19.1 C 29 % 1017.6 hPa 0.0 l/m 1.2 km/h (1 Bft) O-SO 0.3 C 19.1 C
27.03.2003 17:00 18.0 C 35 % 1017.3 hPa 0.0 l/m 1.4 km/h (1 Bft) O-SO 2.1 C 18.0 C
27.03.2003 18:00 16.3 C 39 % 1017.3 hPa 0.0 l/m 0.6 km/h (0 Bft) O-SO 2.4 C 16.3 C
27.03.2003 19:00 14.0 C 47 % 1018.0 hPa 0.0 l/m 2.8 km/h (1 Bft) O-SO 2.8 C 14.0 C
27.03.2003 20:00 11.5 C 58 % 1018.3 hPa 0.0 l/m 5.6 km/h (1 Bft) O-SO 3.4 C 11.5 C
27.03.2003 21:00 10.6 C 63 % 1018.3 hPa 0.0 l/m 3.7 km/h (1 Bft) O-SO 3.8 C 10.5 C
27.03.2003 22:00 9.9 C 66 % 1018.3 hPa 0.0 l/m 0.9 km/h (0 Bft) O-SO 3.9 C 9.8 C
27.03.2003 23:00 9.4 C 70 % 1018.3 hPa 0.0 l/m 0.0 km/h (0 Bft) N 4.3 C 9.4 C
28.03.2003 00:00 9.1 C 70 % 1018.3 hPa 0.0 l/m 0.0 km/h (0 Bft) N 3.9 C 9.1 C
28.03.2003 01:00 8.9 C 69 % 1018.3 hPa 0.0 l/m 0.0 km/h (0 Bft) N 3.5 C 8.9 C
28.03.2003 02:00 8.2 C 72 % 1018.0 hPa 0.0 l/m 0.4 km/h (0 Bft) O-SO 3.5 C 8.2 C
28.03.2003 03:00 8.1 C 74 % 1017.3 hPa 0.0 l/m 0.0 km/h (0 Bft) N 3.7 C 8.1 C
28.03.2003 04:00 8.2 C 75 % 1017.3 hPa 0.0 l/m 0.3 km/h (0 Bft) O-SO 4.0 C 8.2 C
28.03.2003 05:00 7.9 C 77 % 1017.3 hPa 0.0 l/m 0.0 km/h (0 Bft) N 4.0 C 7.9 C
28.03.2003 06:00 8.0 C 77 % 1017.3 hPa 0.0 l/m 1.5 km/h (1 Bft) SO 4.3 C 7.8 C
28.03.2003 07:00 8.5 C 76 % 1017.8 hPa 0.0 l/m 0.1 km/h (0 Bft) N 4.6 C 8.5 C
28.03.2003 08:00 9.5 C 71 % 1017.3 hPa 0.0 l/m 0.0 km/h (0 Bft) N 4.4 C 9.5 C
28.03.2003 09:00 10.8 C 64 % 1017.6 hPa 0.0 l/m 2.9 km/h (1 Bft) W-NW 4.3 C 10.8 C
28.03.2003 10:00 12.8 C 55 % 1018.3 hPa 0.0 l/m 0.3 km/h (0 Bft) NW 4.0 C 12.8 C
28.03.2003 11:00 13.7 C 52 % 1018.3 hPa 0.0 l/m 0.7 km/h (0 Bft) W-NW 3.9 C 13.7 C
28.03.2003 12:00 14.9 C 47 % 1017.4 hPa 0.0 l/m 0.5 km/h (0 Bft) O-SO 3.7 C 14.9 C
28.03.2003 13:00 15.6 C 51 % 1016.8 hPa 0.0 l/m 0.9 km/h (0 Bft) SO 5.6 C 15.6 C
28.03.2003 14:00 16.4 C 47 % 1016.3 hPa 0.0 l/m 1.5 km/h (1 Bft) NW 5.0 C 16.4 C
28.03.2003 15:00 17.1 C 46 % 1016.1 hPa 0.0 l/m 0.2 km/h (0 Bft) NW 5.3 C 17.1 C
28.03.2003 16:00 17.4 C 45 % 1015.2 hPa 0.0 l/m 0.1 km/h (0 Bft) N 5.3 C 17.4 C
28.03.2003 17:00 16.8 C 46 % 1015.2 hPa 0.0 l/m 0.0 km/h (0 Bft) N 5.1 C 16.8 C
28.03.2003 18:00 14.9 C 52 % 1015.2 hPa 0.0 l/m 0.2 km/h (0 Bft) O 5.1 C 14.9 C
28.03.2003 19:00 12.7 C 63 % 1015.2 hPa 0.0 l/m 0.2 km/h (0 Bft) O 5.7 C 12.7 C
28.03.2003 20:00 10.7 C 72 % 1016.1 hPa 0.0 l/m 1.4 km/h (1 Bft) O 5.9 C 10.6 C
28.03.2003 21:00 9.7 C 79 % 1016.3 hPa 0.0 l/m 0.1 km/h (0 Bft) N 6.2 C 9.7 C
28.03.2003 22:00 9.6 C 81 % 1016.3 hPa 0.0 l/m 0.0 km/h (0 Bft) N 6.4 C 9.6 C
28.03.2003 23:00 9.2 C 83 % 1016.3 hPa 0.0 l/m 0.0 km/h (0 Bft) N 6.4 C 9.2 C
29.03.2003 00:00 8.8 C 84 % 1016.3 hPa 0.0 l/m 0.0 km/h (0 Bft) N 6.3 C 8.8 C
29.03.2003 01:00 8.7 C 87 % 1016.3 hPa 0.0 l/m 0.0 km/h (0 Bft) N 6.6 C 8.7 C
29.03.2003 02:00 8.6 C 88 % 1016.3 hPa 0.0 l/m 0.0 km/h (0 Bft) N 6.6 C 8.6 C
29.03.2003 03:00 8.2 C 88 % 1016.2 hPa 0.0 l/m 0.0 km/h (0 Bft) N 6.4 C 8.2 C
29.03.2003 04:00 7.8 C 91 % 1016.3 hPa 0.0 l/m 0.0 km/h (0 Bft) N 6.3 C 7.8 C
29.03.2003 05:00 7.9 C 91 % 1016.3 hPa 0.0 l/m 0.0 km/h (0 Bft) N 6.6 C 7.9 C
29.03.2003 06:00 7.7 C 94 % 1016.3 hPa 0.0 l/m 0.0 km/h (0 Bft) N 6.8 C 7.7 C
29.03.2003 07:00 8.6 C 90 % 1016.5 hPa 0.0 l/m 0.0 km/h (0 Bft) N 7.1 C 8.6 C
29.03.2003 08:00 10.1 C 81 % 1017.3 hPa 0.0 l/m 0.0 km/h (0 Bft) N 7.0 C 10.1 C
29.03.2003 09:00 12.1 C 70 % 1017.3 hPa 0.0 l/m 0.0 km/h (0 Bft) N 6.8 C 12.1 C
29.03.2003 10:00 14.4 C 56 % 1017.3 hPa 0.0 l/m 0.0 km/h (0 Bft) N 5.8 C 14.4 C
29.03.2003 11:00 16.4 C 47 % 1016.8 hPa 0.0 l/m 0.0 km/h (0 Bft) N 4.9 C 16.4 C
29.03.2003 12:00 18.2 C 43 % 1016.3 hPa 0.0 l/m 0.0 km/h (0 Bft) N 5.5 C 18.2 C
29.03.2003 13:00 19.7 C 39 % 1015.8 hPa 0.0 l/m 7.5 km/h (2 Bft) W-NW 5.4 C 19.7 C
29.03.2003 14:00 20.6 C 36 % 1015.2 hPa 0.0 l/m 5.2 km/h (1 Bft) W-NW 5.2 C 20.6 C
29.03.2003 15:00 20.5 C 36 % 1015.2 hPa 0.0 l/m 9.3 km/h (2 Bft) W-NW 4.9 C 20.5 C
29.03.2003 16:00 20.1 C 39 % 1014.9 hPa 0.0 l/m 9.2 km/h (2 Bft) NW 5.7 C 20.1 C
29.03.2003 17:00 18.9 C 44 % 1015.2 hPa 0.0 l/m 1.6 km/h (1 Bft) N-NW 6.2 C 18.9 C
29.03.2003 18:00 16.6 C 51 % 1015.7 hPa 0.0 l/m 3.6 km/h (1 Bft) N-NO 6.4 C 16.6 C
29.03.2003 19:00 15.2 C 53 % 1016.3 hPa 0.0 l/m 0.4 km/h (0 Bft) O-SO 5.7 C 15.2 C
29.03.2003 20:00 13.4 C 62 % 1016.7 hPa 0.0 l/m 0.0 km/h (0 Bft) N 6.2 C 13.4 C
29.03.2003 21:00 12.1 C 68 % 1017.3 hPa 0.0 l/m 0.0 km/h (0 Bft) N 6.3 C 12.1 C
29.03.2003 22:00 11.5 C 74 % 1017.4 hPa 2.1 l/m 0.0 km/h (0 Bft) S-SO 7.0 C 11.5 C
29.03.2003 23:00 11.1 C 91 % 1018.3 hPa 0.6 l/m 5.2 km/h (1 Bft) SO 9.6 C 11.1 C
30.03.2003 00:00 10.6 C 95 % 1018.3 hPa 0.3 l/m 0.9 km/h (0 Bft) SO 9.8 C 10.6 C
30.03.2003 01:00 10.3 C 99 % 1018.3 hPa 0.0 l/m 0.2 km/h (0 Bft) W-NW 10.2 C 10.3 C
30.03.2003 03:00 9.8 C 99 % 1017.9 hPa 0.0 l/m 4.0 km/h (1 Bft) O-SO 9.7 C 9.4 C
30.03.2003 04:00 9.6 C 100 % 1017.3 hPa 0.0 l/m 0.0 km/h (0 Bft) N 9.6 C 9.6 C
30.03.2003 05:00 9.3 C 100 % 1017.3 hPa 0.0 l/m 0.0 km/h (0 Bft) N 9.3 C 9.3 C
30.03.2003 06:00 8.8 C 100 % 1017.3 hPa 0.0 l/m 0.0 km/h (0 Bft) N 8.8 C 8.8 C
30.03.2003 07:00 9.2 C 100 % 1017.3 hPa 0.0 l/m 0.0 km/h (0 Bft) N 9.2 C 9.2 C
30.03.2003 08:00 9.8 C 100 % 1017.3 hPa 0.0 l/m 0.0 km/h (0 Bft) N 9.8 C 9.8 C
30.03.2003 09:00 10.5 C 99 % 1017.8 hPa 0.0 l/m 0.0 km/h (0 Bft) N 10.4 C 10.5 C
30.03.2003 10:00 11.7 C 90 % 1018.3 hPa 0.0 l/m 0.0 km/h (0 Bft) N 10.1 C 11.7 C
30.03.2003 11:00 12.5 C 84 % 1018.3 hPa 0.0 l/m 0.0 km/h (0 Bft) N 10.0 C 12.5 C
30.03.2003 12:00 14.3 C 74 % 1017.4 hPa 0.0 l/m 0.0 km/h (0 Bft) N 9.7 C 14.3 C
30.03.2003 13:00 16.6 C 61 % 1017.2 hPa 0.0 l/m 0.6 km/h (0 Bft) N-NW 9.0 C 16.6 C
30.03.2003 14:00 18.5 C 52 % 1016.3 hPa 0.0 l/m 4.3 km/h (1 Bft) O-SO 8.3 C 18.5 C
30.03.2003 15:00 19.5 C 49 % 1015.4 hPa 0.0 l/m 3.8 km/h (1 Bft) O-SO 8.6 C 19.5 C
30.03.2003 16:00 19.1 C 48 % 1015.2 hPa 0.0 l/m 3.2 km/h (1 Bft) O-SO 7.9 C 19.1 C
30.03.2003 17:00 19.0 C 50 % 1014.2 hPa 0.0 l/m 1.7 km/h (1 Bft) NO 8.4 C 19.0 C
30.03.2003 18:00 17.5 C 57 % 1014.2 hPa 0.0 l/m 1.6 km/h (1 Bft) O 8.9 C 17.5 C
30.03.2003 19:00 15.4 C 59 % 1014.8 hPa 0.0 l/m 7.9 km/h (2 Bft) NO 7.4 C 15.4 C
30.03.2003 20:00 13.8 C 68 % 1015.6 hPa 0.0 l/m 1.0 km/h (0 Bft) N-NO 8.0 C 13.8 C
30.03.2003 21:00 12.0 C 76 % 1016.3 hPa 0.0 l/m 0.0 km/h (0 Bft) N 7.9 C 12.0 C
30.03.2003 22:00 10.7 C 80 % 1016.3 hPa 0.0 l/m 0.0 km/h (0 Bft) N 7.3 C 10.7 C
30.03.2003 23:00 10.1 C 83 % 1016.5 hPa 0.0 l/m 1.0 km/h (0 Bft) O-SO 7.2 C 10.1 C
Min-Datum _ 24.03.03 24.03.03 30.03.03 - 24.03.03 - 25.03.03 24.03.03
_ Min-Zeit 05:22 14:25 18:00 - 00:01 - 18:44 05:43
Minimum _ -3.0 C 25 % 1014.2 hPa - 0.0 km/h (0 Bft) - -4.6 C -5.7 C
Max-Datum _ 29.03.03 24.03.03 24.03.03 29.03.03 25.03.03 - 30.03.03 29.03.03
_ Max-Zeit 14:33 05:37 06:10 22:51 13:50 - 09:55 14:33
Maximum _ 21.3 C 100 % 1032.9 hPa 2.1 l/m 31.5 km/h
SO (5 Bft)
- 10.7 C 21.3 C
Durchschnitt _ 10.1 C 66 % 1020.9 hPa #3.0 l/m 2.3 km/h (1 Bft) O-SO 2.9 C 10.0 C

Durchschnitt Minimum Temp.9.0 C
Durchschnitt Maximum Temp.11.1 C
© Kaiko 2003